Time;durP1;ratioP1;P1;durP2;ratioP2;P2;SDS_P1;SDS_P2;PMS_P1;PMS_P2;Temp;Humidity;BMP_temperature;BMP_pressure;BME280_temperature;BME280_humidity;BME280_pressure;Samples;Min_cycle;Max_cycle;Signal;HPM_P1;HPM_P2
2021/06/09 02:23:46;;;;;;;;;;;;;;;4.98;100.00;100100.72;4980664;28;19992;-82
2021/06/09 02:26:11;;;;;;;;;;;;;;;4.91;100.00;100098.22;4965361;28;19965;-84
2021/06/09 02:28:37;;;;;;;;;;;;;;;4.99;100.00;100105.09;4966333;28;19941;-83
2021/06/09 02:31:03;;;;;;;;;;;;;;;4.96;100.00;100099.88;4965310;28;20313;-81
2021/06/09 02:33:28;;;;;;;;;;;;;;;4.99;100.00;100100.69;4980949;28;19918;-81
2021/06/09 02:35:55;;;;;;;;;;;;;;;5.00;100.00;100091.09;4982263;28;19919;-79
2021/06/09 02:38:21;;;;;;;;;;;;;;;5.01;100.00;100090.16;4982161;28;19918;-82
2021/06/09 02:40:48;;;;;;;;;;;;;;;4.91;100.00;100092.06;4965485;28;20008;-81
2021/06/09 02:43:14;;;;;;;;;;;;;;;5.00;100.00;100086.69;4965926;28;19926;-80
2021/06/09 02:45:40;;;;;;;;;;;;;;;4.94;100.00;100092.03;4982193;28;19949;-80
2021/06/09 02:48:07;;;;;;;;;;;;;;;4.94;100.00;100088.53;4965049;28;19918;-80
2021/06/09 02:50:33;;;;;;;;;;;;;;;4.96;100.00;100082.34;4982248;28;19922;-87
2021/06/09 02:53:04;;;;;;;;;;;;;;;5.02;100.00;100086.66;4971075;28;20241;-86
2021/06/09 02:55:52;;;;;;;;;;;;;;;5.09;100.00;100083.06;4994646;28;19926;-86
2021/06/09 02:58:20;;;;;;;;;;;;;;;4.98;100.00;100088.47;4985782;28;19922;-85
2021/06/09 03:00:55;;;;;;;;;;;;;;;5.11;100.00;100097.03;4984555;28;19926;-85
2021/06/09 03:03:25;;;;;;;;;;;;;;;5.01;100.00;100087.53;4984251;28;20179;-85
2021/06/09 03:05:56;;;;;;;;;;;;;;;4.98;100.00;100085.84;4964308;28;19918;-85
2021/06/09 03:08:41;;;;;;;;;;;;;;;5.00;100.00;100085.84;4968505;28;19926;-84
2021/06/09 03:11:06;;;;;;;;;;;;;;;4.96;100.00;100086.75;4981769;28;19926;-85
2021/06/09 03:13:57;;;;;;;;;;;;;;;5.02;100.00;100081.41;4964778;28;19929;-85
2021/06/09 03:16:28;;;;;;;;;;;;;;;4.99;100.00;100082.31;4964418;28;19933;-88
2021/06/09 03:18:54;;;;;;;;;;;;;;;5.01;100.00;100082.28;4964376;28;19969;-84
2021/06/09 03:21:23;;;;;;;;;;;;;;;4.99;100.00;100078.81;4983120;28;20032;-84
2021/06/09 03:24:06;;;;;;;;;;;;;;;4.99;100.00;100078.81;4993445;28;19923;-85
2021/06/09 03:26:32;;;;;;;;;;;;;;;4.94;100.00;100083.28;4992450;28;19922;-85
2021/06/09 03:29:08;;;;;;;;;;;;;;;5.03;100.00;100080.53;4975124;28;20292;-84
2021/06/09 03:31:37;;;;;;;;;;;;;;;4.93;100.00;100079.81;4991322;28;20301;-84
2021/06/09 03:34:04;;;;;;;;;;;;;;;4.94;100.00;100080.66;4988415;28;19922;-85
2021/06/09 03:36:37;;;;;;;;;;;;;;;4.90;100.00;100085.97;4987218;28;19929;-85
2021/06/09 03:39:04;;;;;;;;;;;;;;;4.85;100.00;100084.28;4987322;28;19923;-85
2021/06/09 03:41:51;;;;;;;;;;;;;;;4.98;100.00;100079.72;4981089;28;19926;-84
2021/06/09 03:44:19;;;;;;;;;;;;;;;5.00;100.00;100080.56;4981287;28;19930;-84
2021/06/09 07:52:21;;;;;;;;;;;;;;;5.00;100.00;100118.19;4977910;28;19933;-84
2021/06/09 07:54:47;;;;;;;;;;;;;;;4.90;100.00;100112.22;4979497;28;20253;-84
2021/06/09 07:57:13;;;;;;;;;;;;;;;4.94;100.00;100107.78;4979269;28;20285;-85
2021/06/09 07:59:40;;;;;;;;;;;;;;;4.98;100.00;100106.88;4980063;28;20009;-84
2021/06/09 08:02:06;;;;;;;;;;;;;;;4.93;100.00;100105.19;4979654;28;19929;-84
2021/06/09 08:04:31;;;;;;;;;;;;;;;5.01;100.00;100108.56;4978968;28;19922;-84
2021/06/09 08:06:58;;;;;;;;;;;;;;;4.89;100.00;100109.63;4978756;28;19977;-84
2021/06/09 08:09:25;;;;;;;;;;;;;;;4.90;100.00;100116.63;4959765;28;19928;-85
2021/06/09 08:11:53;;;;;;;;;;;;;;;5.01;100.00;100113.81;4955183;28;20370;-85
2021/06/09 08:14:20;;;;;;;;;;;;;;;4.97;100.00;100114.75;4943214;29;19922;-84
2021/06/09 08:16:46;;;;;;;;;;;;;;;5.04;100.00;100111.13;4960263;29;19931;-85
2021/06/09 08:19:12;;;;;;;;;;;;;;;4.93;100.00;100111.31;4959795;29;19923;-85
2021/06/09 08:21:37;;;;;;;;;;;;;;;4.97;100.00;100101.63;4943261;28;19938;-85
2021/06/09 08:24:04;;;;;;;;;;;;;;;4.95;100.00;100099.03;4960573;29;19922;-85
2021/06/09 08:26:30;;;;;;;;;;;;;;;4.98;100.00;100100.72;4942801;29;20290;-85
2021/06/09 08:28:56;;;;;;;;;;;;;;;5.00;100.00;100098.97;4959147;28;19934;-84
2021/06/09 08:31:24;;;;;;;;;;;;;;;5.01;100.00;100093.69;4957831;28;20233;-84
2021/06/09 08:33:53;;;;;;;;;;;;;;;4.98;100.00;100100.72;4943753;29;19922;-84
2021/06/09 08:36:19;;;;;;;;;;;;;;;5.02;100.00;100089.28;4944033;29;19958;-84
2021/06/09 08:38:46;;;;;;;;;;;;;;;5.00;100.00;100086.69;4959507;29;20352;-85
2021/06/09 08:41:12;;;;;;;;;;;;;;;4.93;100.00;100092.94;4960002;29;19937;-85
2021/06/09 08:43:38;;;;;;;;;;;;;;;5.03;100.00;100094.53;4959584;29;19933;-87
2021/06/09 08:46:06;;;;;;;;;;;;;;;4.91;100.00;100097.31;4959935;29;19933;-86
2021/06/09 08:48:35;;;;;;;;;;;;;;;5.01;100.00;100095.41;4943080;29;19922;-86
2021/06/09 08:51:03;;;;;;;;;;;;;;;5.05;100.00;100097.13;4931484;29;19926;-86
2021/06/09 08:53:29;;;;;;;;;;;;;;;5.03;100.00;100104.16;4931859;29;19922;-86
2021/06/09 08:55:55;;;;;;;;;;;;;;;5.04;100.00;100103.25;4932645;29;19933;-85
2021/06/09 08:58:21;;;;;;;;;;;;;;;5.02;100.00;100099.78;4955465;28;20234;-86
2021/06/09 09:00:46;;;;;;;;;;;;;;;5.06;100.00;100104.97;4959906;29;19937;-86
2021/06/09 09:03:12;;;;;;;;;;;;;;;5.01;100.00;100098.94;4943668;29;19934;-86
2021/06/09 09:05:37;;;;;;;;;;;;;;;5.05;100.00;100105.00;4948430;29;20010;-86
2021/06/09 09:08:07;;;;;;;;;;;;;;;5.03;100.00;100106.78;4941056;29;19923;-85
2021/06/09 09:10:33;;;;;;;;;;;;;;;4.95;100.00;100103.41;4940772;29;19969;-86
2021/06/09 09:13:00;;;;;;;;;;;;;;;5.00;100.00;100102.44;4941465;29;19922;-85
2021/06/09 09:15:26;;;;;;;;;;;;;;;5.04;100.00;100105.88;4959709;29;19927;-87
2021/06/09 09:17:55;;;;;;;;;;;;;;;5.07;100.00;100103.22;4943048;29;20338;-85
2021/06/09 09:20:42;;;;;;;;;;;;;;;5.04;100.00;100101.53;4939222;29;20443;-86
2021/06/09 09:23:18;;;;;;;;;;;;;;;4.97;100.00;100101.63;4943214;29;19933;-85
2021/06/09 09:25:54;;;;;;;;;;;;;;;4.99;100.00;100110.34;4946784;29;20298;-86
2021/06/09 09:28:24;;;;;;;;;;;;;;;5.05;100.00;100097.97;4933463;29;19962;-85
2021/06/09 09:30:51;;;;;;;;;;;;;;;5.07;100.00;100095.34;4959660;28;19930;-86
2021/06/09 09:33:21;;;;;;;;;;;;;;;5.12;100.00;100106.63;4929515;29;19931;-86
2021/06/09 09:35:47;;;;;;;;;;;;;;;5.17;100.00;100099.56;4923718;29;19923;-86
2021/06/09 09:38:22;;;;;;;;;;;;;;;5.07;100.00;100103.22;4924325;29;19946;-86
2021/06/09 09:41:00;;;;;;;;;;;;;;;5.04;100.00;100108.50;4924230;29;19941;-87
2021/06/09 09:43:44;;;;;;;;;;;;;;;5.05;100.00;100105.88;4925490;29;20406;-86
2021/06/09 09:46:10;;;;;;;;;;;;;;;5.41;100.00;100102.69;4923706;29;19954;-83
2021/06/09 09:48:38;;;;;;;;;;;;;;;5.34;100.00;100103.69;4915089;29;20173;-84
2021/06/09 09:51:05;;;;;;;;;;;;;;;5.20;100.00;100103.88;4935344;29;19946;-84
2021/06/09 09:53:31;;;;;;;;;;;;;;;5.07;100.00;100104.09;4943028;29;20344;-83
2021/06/09 09:56:06;;;;;;;;;;;;;;;5.14;100.00;100103.97;4938700;29;19923;-83
2021/06/09 09:58:33;;;;;;;;;;;;;;;5.13;100.00;100097.88;4942374;29;20351;-83
2021/06/09 10:01:09;;;;;;;;;;;;;;;5.19;100.00;100102.19;4941486;29;20325;-82
2021/06/09 10:03:42;;;;;;;;;;;;;;;5.16;100.00;100103.06;4937254;29;19931;-83
2021/06/09 10:08:39;;;;;;;;;;;;;;;5.09;100.00;100106.72;4922397;29;20306;-84
2021/06/09 10:11:12;;;;;;;;;;;;;;;5.06;100.00;100098.88;4918080;29;19927;-83
2021/06/09 10:13:38;;;;;;;;;;;;;;;5.06;100.00;100097.09;4907368;29;19933;-83
2021/06/09 10:16:20;;;;;;;;;;;;;;;5.13;100.00;100092.63;4924104;29;19925;-84
2021/06/09 10:18:54;;;;;;;;;;;;;;;5.14;100.00;100097.00;4923592;29;19927;-83
2021/06/09 10:21:22;;;;;;;;;;;;;;;5.18;100.00;100085.53;4906709;29;19931;-83
2021/06/09 10:23:47;;;;;;;;;;;;;;;5.17;100.00;100098.69;4920842;29;19934;-84
2021/06/09 10:26:17;;;;;;;;;;;;;;;5.08;100.00;100090.06;4915772;29;19927;-84
2021/06/09 10:28:55;;;;;;;;;;;;;;;5.08;100.00;100087.44;4906207;29;19955;-82
2021/06/09 10:31:22;;;;;;;;;;;;;;;5.16;100.00;100084.69;4900208;29;20185;-84
2021/06/09 10:33:48;;;;;;;;;;;;;;;5.17;100.00;100083.81;4888768;29;20359;-83
2021/06/09 10:36:14;;;;;;;;;;;;;;;5.11;100.00;100086.53;4894524;29;19923;-83
2021/06/09 10:38:45;;;;;;;;;;;;;;;5.16;100.00;100079.44;4884197;29;19923;-84
2021/06/09 10:41:14;;;;;;;;;;;;;;;5.13;100.00;100078.63;4889603;29;20181;-85
2021/06/09 10:43:47;;;;;;;;;;;;;;;5.18;100.00;100075.00;4907086;29;20020;-83
2021/06/09 10:46:21;;;;;;;;;;;;;;;5.20;100.00;100073.25;4916976;29;19923;-82
2021/06/09 10:48:51;;;;;;;;;;;;;;;5.16;100.00;100079.44;4922178;29;20202;-84
2021/06/09 10:51:17;;;;;;;;;;;;;;;5.25;100.00;100071.41;4917681;29;20276;-84
2021/06/09 10:53:44;;;;;;;;;;;;;;;5.19;100.00;100074.13;4909631;29;19975;-84
2021/06/09 10:56:13;;;;;;;;;;;;;;;5.16;100.00;100074.19;4914145;29;19927;-84
2021/06/09 10:58:39;;;;;;;;;;;;;;;5.07;100.00;100074.31;4905193;29;19923;-83
2021/06/09 11:01:07;;;;;;;;;;;;;;;5.17;100.00;100078.56;4904559;29;20211;-84
2021/06/09 11:03:35;;;;;;;;;;;;;;;5.13;100.00;100068.97;4891461;29;19935;-84
2021/06/09 11:06:04;;;;;;;;;;;;;;;5.12;100.00;100075.09;4890833;29;20035;-83
2021/06/09 11:08:30;;;;;;;;;;;;;;;5.12;100.00;100069.84;4908165;29;19923;-83
2021/06/09 11:10:57;;;;;;;;;;;;;;;5.23;100.00;100067.06;4902678;29;19924;-83
2021/06/09 11:13:30;;;;;;;;;;;;;;;5.11;100.00;100067.28;4927914;29;20010;-83
2021/06/09 11:16:09;;;;;;;;;;;;;;;5.11;100.00;100077.78;4927490;29;19931;-83
2021/06/09 11:18:37;;;;;;;;;;;;;;;5.15;100.00;100068.94;4904681;29;20227;-83
2021/06/09 11:21:04;;;;;;;;;;;;;;;5.17;100.00;100072.41;4923567;29;20326;-84
2021/06/09 11:23:33;;;;;;;;;;;;;;;5.19;100.00;100061.00;4931602;29;19994;-83
2021/06/09 11:25:58;;;;;;;;;;;;;;;5.10;100.00;100069.03;4910674;29;19926;-83
2021/06/09 11:28:33;;;;;;;;;;;;;;;5.09;100.00;100060.28;4913477;29;19930;-83
2021/06/09 11:31:00;;;;;;;;;;;;;;;5.09;100.00;100068.16;4926149;29;20304;-83
2021/06/09 11:33:29;;;;;;;;;;;;;;;5.15;100.00;100069.81;4907319;29;19930;-83
2021/06/09 11:35:57;;;;;;;;;;;;;;;5.21;100.00;100063.59;4919459;29;20390;-83
2021/06/09 11:38:24;;;;;;;;;;;;;;;5.16;100.00;100055.78;4911822;29;19931;-84
2021/06/09 11:40:57;;;;;;;;;;;;;;;5.24;100.00;100064.41;4886575;29;19927;-84
2021/06/09 11:43:27;;;;;;;;;;;;;;;5.18;100.00;100063.66;4886915;29;20010;-83
2021/06/09 11:46:00;;;;;;;;;;;;;;;5.24;100.00;100061.78;4910850;29;20282;-84
2021/06/09 11:48:27;;;;;;;;;;;;;;;5.32;100.00;100060.81;4927211;29;20071;-82
2021/06/09 11:50:57;;;;;;;;;;;;;;;5.31;100.00;100059.91;4906539;29;19923;-84
2021/06/09 11:53:40;;;;;;;;;;;;;;;5.26;100.00;100057.41;4920250;29;19927;-83
2021/06/09 11:56:15;;;;;;;;;;;;;;;5.32;100.00;100052.91;4928839;29;19927;-84
2021/06/09 11:58:41;;;;;;;;;;;;;;;5.33;100.00;100042.38;4936760;29;19934;-84
2021/06/09 12:01:08;;;;;;;;;;;;;;;5.21;100.00;100043.44;4906078;29;19928;-83
2021/06/09 12:03:34;;;;;;;;;;;;;;;5.25;100.00;100033.78;4938788;29;19978;-83
2021/06/09 12:06:32;;;;;;;;;;;;;;;5.23;100.00;100041.69;4923125;29;19919;-83
2021/06/09 12:08:59;;;;;;;;;;;;;;;5.32;100.00;100029.28;4896648;29;20030;-83
2021/06/09 12:11:25;;;;;;;;;;;;;;;5.30;100.00;100026.66;4939004;29;19923;-83
2021/06/09 12:13:51;;;;;;;;;;;;;;;5.23;100.00;100020.66;4931595;29;20286;-83
2021/06/09 12:16:20;;;;;;;;;;;;;;;5.36;100.00;100021.31;4930692;29;19926;-83
2021/06/09 12:18:47;;;;;;;;;;;;;;;5.34;100.00;100023.06;4939534;29;19934;-83
2021/06/09 12:21:14;;;;;;;;;;;;;;;5.32;100.00;100021.38;4910704;29;19928;-83
2021/06/09 12:23:53;;;;;;;;;;;;;;;5.26;100.00;100014.47;4935593;29;19934;-84
2021/06/09 12:26:18;;;;;;;;;;;;;;;5.31;100.00;100012.63;4921665;29;19923;-83
2021/06/09 12:28:44;;;;;;;;;;;;;;;5.32;99.91;100010.88;4912015;29;20289;-83
2021/06/09 12:31:13;;;;;;;;;;;;;;;5.41;100.00;100008.94;4922550;29;19969;-82
2021/06/09 12:33:42;;;;;;;;;;;;;;;5.30;100.00;100010.00;4912748;29;19930;-83
2021/06/09 12:36:10;;;;;;;;;;;;;;;5.42;100.00;100012.44;4939027;29;20266;-82
2021/06/09 12:38:37;;;;;;;;;;;;;;;5.53;100.00;100006.97;4937126;28;19955;-83
2021/06/09 12:41:03;;;;;;;;;;;;;;;5.42;100.00;100005.41;4942669;29;19926;-84
2021/06/09 12:43:28;;;;;;;;;;;;;;;5.48;100.00;100004.44;4937762;29;19922;-83
2021/06/09 12:45:54;;;;;;;;;;;;;;;5.52;99.80;100014.00;4940964;29;20278;-83
2021/06/09 12:48:20;;;;;;;;;;;;;;;5.55;99.44;100010.44;4925156;29;19937;-84
2021/06/09 12:50:47;;;;;;;;;;;;;;;5.49;100.00;100010.56;4944246;29;19923;-84
2021/06/09 12:53:13;;;;;;;;;;;;;;;5.55;100.00;100008.69;4926379;29;19922;-83
2021/06/09 12:55:43;;;;;;;;;;;;;;;5.63;99.78;100014.69;4932148;29;19934;-83
2021/06/09 12:58:09;;;;;;;;;;;;;;;5.58;100.00;100003.34;4940720;29;19926;-83
2021/06/09 13:00:38;;;;;;;;;;;;;;;5.63;99.65;100009.41;4952442;29;20403;-83
2021/06/09 13:03:14;;;;;;;;;;;;;;;5.58;99.96;99999.88;4955164;28;19922;-83
2021/06/09 13:05:42;;;;;;;;;;;;;;;5.63;100.00;99998.91;4955024;28;19929;-84
2021/06/09 13:08:09;;;;;;;;;;;;;;;5.58;100.00;100003.34;4942807;29;20343;-84
2021/06/09 13:10:35;;;;;;;;;;;;;;;5.64;99.95;99994.50;4959250;28;19946;-83
2021/06/09 13:13:01;;;;;;;;;;;;;;;5.59;100.00;99993.72;4959567;28;20273;-84
2021/06/09 13:15:26;;;;;;;;;;;;;;;5.48;100.00;99999.19;4961379;28;19918;-84
2021/06/09 13:17:52;;;;;;;;;;;;;;;5.52;100.00;99994.72;4962248;28;19973;-83
2021/06/09 13:20:19;;;;;;;;;;;;;;;5.63;100.00;99988.38;4950858;29;20316;-83
2021/06/09 13:22:46;;;;;;;;;;;;;;;5.51;100.00;99999.13;4946296;29;20454;-84
2021/06/09 13:25:13;;;;;;;;;;;;;;;5.68;100.00;99988.31;4928987;29;19923;-83
2021/06/09 13:27:38;;;;;;;;;;;;;;;5.59;100.00;99985.84;4943915;29;20191;-83
2021/06/09 13:30:04;;;;;;;;;;;;;;;5.62;100.00;99984.00;4944538;29;19934;-83
2021/06/09 13:32:32;;;;;;;;;;;;;;;5.57;100.00;99982.38;4944159;29;19923;-84
2021/06/09 13:34:59;;;;;;;;;;;;;;;5.68;100.00;99976.91;4927394;29;19975;-83
2021/06/09 13:37:26;;;;;;;;;;;;;;;5.71;100.00;99979.47;4926889;29;19989;-84
2021/06/09 13:39:56;;;;;;;;;;;;;;;5.68;100.00;99980.41;4956053;28;19927;-83
2021/06/09 13:42:33;;;;;;;;;;;;;;;5.66;100.00;99976.06;4944890;29;19926;-83
2021/06/09 13:45:03;;;;;;;;;;;;;;;5.63;100.00;99969.97;4946385;29;19930;-84
2021/06/09 13:47:31;;;;;;;;;;;;;;;5.59;100.00;99970.94;4927829;29;19923;-84
2021/06/09 13:49:58;;;;;;;;;;;;;;;5.69;100.00;99974.25;4960622;29;20325;-84
2021/06/09 13:52:29;;;;;;;;;;;;;;;5.74;100.00;99971.53;4938895;29;20401;-83
2021/06/09 13:54:55;;;;;;;;;;;;;;;5.64;100.00;99974.31;4945326;29;19930;-83
2021/06/09 13:57:23;;;;;;;;;;;;;;;5.59;100.00;99970.94;4945043;29;19923;-83
2021/06/09 13:59:51;;;;;;;;;;;;;;;5.61;100.00;99969.13;4961117;28;20017;-84
2021/06/09 14:02:24;;;;;;;;;;;;;;;5.68;100.00;99974.25;4954894;28;20232;-83
2021/06/09 14:04:49;;;;;;;;;;;;;;;5.65;100.00;99972.59;4939012;29;19933;-84
2021/06/09 14:07:21;;;;;;;;;;;;;;;5.68;100.00;99969.91;4940594;29;20247;-83
2021/06/09 14:10:03;;;;;;;;;;;;;;;5.72;100.00;99975.94;4944124;29;22023;-84
2021/06/09 14:12:34;;;;;;;;;;;;;;;5.73;100.00;99973.28;4942576;28;19983;-84
2021/06/09 14:15:05;;;;;;;;;;;;;;;5.71;100.00;99976.84;4944477;28;19961;-83
2021/06/09 14:17:31;;;;;;;;;;;;;;;5.78;100.00;99965.31;4948270;28;19923;-84
2021/06/09 14:20:04;;;;;;;;;;;;;;;5.72;100.00;99966.28;4964914;28;19922;-83
2021/06/09 14:22:30;;;;;;;;;;;;;;;5.69;100.00;99963.72;4964530;29;19937;-82
2021/06/09 14:25:04;;;;;;;;;;;;;;;5.88;100.00;99971.25;4931067;29;20378;-83
2021/06/09 14:27:29;;;;;;;;;;;;;;;5.75;100.00;99966.22;4946222;29;20478;-84
2021/06/09 14:30:05;;;;;;;;;;;;;;;5.77;100.00;99963.56;4964297;28;19994;-85
2021/06/09 14:32:34;;;;;;;;;;;;;;;5.83;100.00;99959.03;4953046;29;19922;-84
2021/06/09 14:35:10;;;;;;;;;;;;;;;5.79;100.00;99964.41;4952836;29;19922;-82
2021/06/09 14:37:39;;;;;;;;;;;;;;;5.78;100.00;99960.06;4944364;29;19922;-83
2021/06/09 14:40:10;;;;;;;;;;;;;;;5.84;100.00;99954.69;4938139;29;19985;-83
2021/06/09 14:42:38;;;;;;;;;;;;;;;5.87;100.00;99946.72;4943948;29;19965;-83
2021/06/09 14:45:16;;;;;;;;;;;;;;;5.91;100.00;99950.16;4938729;29;19923;-83
2021/06/09 14:48:04;;;;;;;;;;;;;;;5.92;99.91;99947.47;4937307;29;19922;-83
2021/06/09 14:50:27;;;;;;;;;;;;;;;5.88;100.00;99944.94;4944097;29;19923;-83
2021/06/09 14:52:53;;;;;;;;;;;;;;;5.88;100.00;99945.81;4949854;29;19929;-84
2021/06/09 14:55:20;;;;;;;;;;;;;;;5.89;100.00;99947.56;4960913;28;19923;-83
2021/06/09 14:57:46;;;;;;;;;;;;;;;5.95;100.00;99942.16;4936518;29;19929;-84
2021/06/09 15:00:15;;;;;;;;;;;;;;;5.99;99.81;99949.09;4948742;28;20006;-84
2021/06/09 15:02:41;;;;;;;;;;;;;;;6.04;99.94;99938.47;4944988;28;19933;-83
2021/06/09 15:05:08;;;;;;;;;;;;;;;5.95;100.00;99947.41;4945602;28;19965;-83
2021/06/09 15:07:34;;;;;;;;;;;;;;;6.03;100.00;99939.41;4952624;28;19934;-83
2021/06/09 15:09:59;;;;;;;;;;;;;;;6.03;100.00;99935.88;4946058;28;19923;-84
2021/06/09 15:12:26;;;;;;;;;;;;;;;5.96;100.00;99932.50;4943041;29;19923;-82
2021/06/09 15:14:51;;;;;;;;;;;;;;;6.04;100.00;99929.75;4936025;29;19940;-84
2021/06/09 15:17:17;;;;;;;;;;;;;;;6.07;100.00;99929.66;4929305;29;20221;-84
2021/06/09 15:19:42;;;;;;;;;;;;;;;6.04;100.00;99932.38;4956904;29;20010;-84
2021/06/09 15:22:08;;;;;;;;;;;;;;;6.03;100.00;99928.88;4961927;28;19933;-84
2021/06/09 15:24:33;;;;;;;;;;;;;;;6.05;100.00;99929.72;4955306;28;19923;-85
2021/06/09 15:26:59;;;;;;;;;;;;;;;6.05;100.00;99931.44;4944550;29;19922;-84
2021/06/09 15:29:24;;;;;;;;;;;;;;;6.05;100.00;99932.34;4938637;29;19977;-84
2021/06/09 15:31:50;;;;;;;;;;;;;;;6.11;100.00;99932.19;4954537;28;20017;-84
2021/06/09 15:34:15;;;;;;;;;;;;;;;6.08;99.47;99931.38;4933056;29;20218;-84
2021/06/09 15:36:43;;;;;;;;;;;;;;;6.06;100.00;99927.94;4943875;29;19922;-84
2021/06/09 15:39:12;;;;;;;;;;;;;;;6.17;100.00;99920.66;4943024;28;19934;-84
2021/06/09 15:41:38;;;;;;;;;;;;;;;6.21;100.00;99921.44;4958525;29;20195;-84
2021/06/09 15:44:07;;;;;;;;;;;;;;;6.25;100.00;99917.84;4951451;29;20290;-84
2021/06/09 15:46:34;;;;;;;;;;;;;;;6.26;100.00;99920.44;4943192;29;20363;-84
2021/06/09 15:48:59;;;;;;;;;;;;;;;6.28;100.00;99917.78;4954217;29;20321;-84
2021/06/09 15:51:25;;;;;;;;;;;;;;;6.32;100.00;99920.31;4960041;29;19926;-85
2021/06/09 15:53:50;;;;;;;;;;;;;;;6.30;100.00;99919.50;4933828;29;20282;-84
2021/06/09 15:56:16;;;;;;;;;;;;;;;6.36;100.00;99916.69;4954739;29;19922;-84
2021/06/09 15:58:41;;;;;;;;;;;;;;;6.32;100.00;99920.31;4950555;29;19933;-83
2021/06/09 16:01:07;;;;;;;;;;;;;;;6.38;99.55;99918.44;4933900;29;19927;-83
2021/06/09 16:03:32;;;;;;;;;;;;;;;6.45;99.15;99918.25;4957014;29;20329;-84
2021/06/09 16:05:59;;;;;;;;;;;;;;;6.40;99.24;99911.34;4947189;29;19918;-84
2021/06/09 16:08:24;;;;;;;;;;;;;;;6.46;98.38;99912.09;4956040;28;19961;-84
2021/06/09 16:10:53;;;;;;;;;;;;;;;6.47;98.60;99907.69;4959481;28;20258;-84
2021/06/09 16:13:19;;;;;;;;;;;;;;;6.45;98.71;99906.88;4952460;28;19941;-84
2021/06/09 16:15:44;;;;;;;;;;;;;;;6.49;98.17;99906.78;4935241;29;19923;-83
2021/06/09 16:18:11;;;;;;;;;;;;;;;6.43;99.51;99906.91;4952770;28;20214;-84
2021/06/09 16:20:36;;;;;;;;;;;;;;;6.52;98.93;99897.91;4928055;29;20207;-84
2021/06/09 16:23:02;;;;;;;;;;;;;;;6.46;99.13;99896.31;4951388;28;19930;-83
2021/06/09 16:25:27;;;;;;;;;;;;;;;6.39;99.67;99897.34;4945830;28;20048;-83
2021/06/09 16:27:54;;;;;;;;;;;;;;;6.48;99.29;99891.00;4951148;29;19930;-83
2021/06/09 16:30:20;;;;;;;;;;;;;;;6.51;99.58;99901.44;4933027;29;19954;-83
2021/06/09 16:32:46;;;;;;;;;;;;;;;6.48;99.81;99893.66;4932278;29;19926;-82
2021/06/09 16:35:13;;;;;;;;;;;;;;;6.51;99.71;99904.97;4930917;29;20254;-83
2021/06/09 16:37:41;;;;;;;;;;;;;;;6.50;99.65;99903.22;4951699;28;20050;-84
2021/06/09 16:40:17;;;;;;;;;;;;;;;6.50;100.00;99899.72;4952741;28;19933;-83
2021/06/09 16:42:44;;;;;;;;;;;;;;;6.55;100.00;99900.47;4937415;28;20206;-83
2021/06/09 16:45:11;;;;;;;;;;;;;;;6.52;100.00;99908.44;4932306;29;19942;-83
2021/06/09 16:47:38;;;;;;;;;;;;;;;6.58;99.91;99900.41;4949952;28;20282;-84
2021/06/09 16:50:05;;;;;;;;;;;;;;;6.59;99.86;99902.13;4932734;29;20175;-83
2021/06/09 16:52:30;;;;;;;;;;;;;;;6.60;100.00;99908.25;4947899;28;19922;-84
2021/06/09 17:00:21;;;;;;;;;;;;;;;6.69;99.68;99908.91;4946783;28;19981;-84
2021/06/09 17:02:48;;;;;;;;;;;;;;;6.67;100.00;99915.97;4931819;29;19922;-84
2021/06/09 17:05:18;;;;;;;;;;;;;;;6.74;100.00;99916.69;4936036;28;19922;-84
2021/06/09 17:07:47;;;;;;;;;;;;;;;6.70;99.42;99915.91;4949935;28;19934;-84
2021/06/09 17:10:15;;;;;;;;;;;;;;;6.86;99.15;99923.41;4933677;28;19923;-83
2021/06/09 17:12:41;;;;;;;;;;;;;;;6.85;99.65;99911.16;4932209;28;19922;-83
2021/06/09 17:15:07;;;;;;;;;;;;;;;6.93;98.23;99918.84;4932938;29;19929;-83
2021/06/09 17:17:33;;;;;;;;;;;;;;;6.89;98.79;99916.31;4953081;28;19938;-82
2021/06/09 17:20:00;;;;;;;;;;;;;;;6.94;98.19;99912.66;4948361;28;19922;-84
2021/06/09 17:22:26;;;;;;;;;;;;;;;7.12;96.52;99911.34;4949067;28;19935;-83
2021/06/09 17:24:54;;;;;;;;;;;;;;;7.22;95.68;99913.66;4950377;28;19923;-83
2021/06/09 17:27:19;;;;;;;;;;;;;;;7.33;95.38;99905.47;4952674;28;20021;-83
2021/06/09 17:29:45;;;;;;;;;;;;;;;7.25;96.29;99907.47;4946813;28;19958;-83
2021/06/09 17:32:10;;;;;;;;;;;;;;;7.26;95.29;99909.19;4931785;29;19922;-85
2021/06/09 17:34:36;;;;;;;;;;;;;;;7.21;97.33;99911.97;4950303;28;19922;-83
2021/06/09 17:37:02;;;;;;;;;;;;;;;7.37;94.89;99911.50;4952419;28;19969;-84
2021/06/09 17:39:28;;;;;;;;;;;;;;;7.37;96.84;99904.50;4950430;28;20423;-83
2021/06/09 17:41:54;;;;;;;;;;;;;;;7.63;93.99;99913.44;4952559;28;19934;-84
2021/06/09 17:44:19;;;;;;;;;;;;;;;7.78;94.18;99917.38;4945845;28;19978;-84
2021/06/09 17:46:45;;;;;;;;;;;;;;;7.62;93.86;99917.81;4954918;28;20282;-82
2021/06/09 17:49:10;;;;;;;;;;;;;;;7.72;93.10;99917.56;4927978;29;19942;-83
2021/06/09 17:51:37;;;;;;;;;;;;;;;7.76;92.83;99920.06;4950542;28;19922;-87
2021/06/09 17:54:03;;;;;;;;;;;;;;;7.69;94.60;99922.94;4936119;29;19930;-85
2021/06/09 17:56:28;;;;;;;;;;;;;;;7.76;93.33;99924.50;4952311;28;19950;-84
2021/06/09 17:58:56;;;;;;;;;;;;;;;7.82;92.27;99925.16;4953672;28;19985;-85
2021/06/09 18:03:57;;;;;;;;;;;;;;;7.76;93.29;99930.63;4951172;28;19922;-84
2021/06/09 18:06:23;;;;;;;;;;;;;;;7.76;94.49;99930.63;4934841;28;19933;-84
2021/06/09 18:08:49;;;;;;;;;;;;;;;7.73;94.41;99930.72;4936360;28;19922;-86
2021/06/09 18:11:14;;;;;;;;;;;;;;;7.82;94.41;99929.59;4953305;28;20318;-82
2021/06/09 18:13:40;;;;;;;;;;;;;;;7.92;94.05;99936.31;4938237;29;19930;-84
2021/06/09 18:16:06;;;;;;;;;;;;;;;8.01;92.71;99929.91;4953247;28;20022;-83
2021/06/09 18:18:32;;;;;;;;;;;;;;;7.87;92.95;99932.09;4954154;28;20359;-84
2021/06/09 18:21:01;;;;;;;;;;;;;;;7.86;92.78;99935.63;4937298;29;19927;-84
2021/06/09 18:23:27;;;;;;;;;;;;;;;7.82;93.94;99940.16;4940854;29;19933;-84
2021/06/09 18:25:52;;;;;;;;;;;;;;;7.86;93.71;99935.63;4954879;28;19923;-83
2021/06/09 18:28:18;;;;;;;;;;;;;;;7.95;94.64;99941.50;4958193;28;20302;-87
2021/06/09 18:30:45;;;;;;;;;;;;;;;7.86;94.14;99948.81;4954677;29;19942;-84
2021/06/09 18:33:10;;;;;;;;;;;;;;;10.12;100.00;99945.69;4955448;28;19938;-82
2021/06/09 18:35:36;;;;;;;;;;;;;;;8.51;95.79;99950.41;4959915;28;19922;-84
2021/06/09 18:38:03;;;;;;;;;;;;;;;8.13;95.05;99949.78;4940687;29;19922;-84
2021/06/09 18:40:29;;;;;;;;;;;;;;;8.03;96.39;99950.97;4936116;29;19923;-85
2021/06/09 18:42:54;;;;;;;;;;;;;;;8.02;95.52;99951.88;4956277;28;19918;-84
2021/06/09 18:45:21;;;;;;;;;;;;;;;7.99;95.08;99958.09;4948558;28;20021;-84
2021/06/09 18:47:48;;;;;;;;;;;;;;;8.05;94.85;99957.06;4950069;29;19934;-85
2021/06/09 18:50:15;;;;;;;;;;;;;;;8.06;95.13;99961.41;4952081;29;20013;-83
2021/06/09 18:52:41;;;;;;;;;;;;;;;8.00;95.51;99965.13;4949495;29;19923;-85
2021/06/09 18:55:07;;;;;;;;;;;;;;;7.99;94.84;99974.81;4954593;28;21152;-84
2021/06/09 18:57:33;;;;;;;;;;;;;;;8.02;95.08;99978.28;4953634;29;19931;-83
2021/06/09 18:59:59;;;;;;;;;;;;;;;8.00;94.40;99978.31;4950395;28;19935;-82
2021/06/09 19:02:24;;;;;;;;;;;;;;;8.04;94.47;99979.97;4956026;28;19989;-84
2021/06/09 19:04:50;;;;;;;;;;;;;;;8.03;95.52;99983.50;4952513;28;20195;-83
2021/06/09 19:07:18;;;;;;;;;;;;;;;8.04;96.01;99985.25;4948244;29;19988;-84
2021/06/09 19:09:43;;;;;;;;;;;;;;;8.06;94.78;99986.06;4931487;29;20001;-84
2021/06/09 19:12:09;;;;;;;;;;;;;;;8.09;94.31;99985.97;4931628;29;20024;-84
2021/06/09 19:14:41;;;;;;;;;;;;;;;8.06;94.83;99985.16;4953407;28;19966;-84
2021/06/09 19:17:10;;;;;;;;;;;;;;;8.02;96.00;99994.09;4953455;28;19966;-84
2021/06/09 19:19:36;;;;;;;;;;;;;;;8.00;96.47;99992.38;4947082;29;19922;-84
2021/06/09 19:22:02;;;;;;;;;;;;;;;8.13;95.39;99994.66;4951143;29;19963;-84
2021/06/09 19:24:27;;;;;;;;;;;;;;;8.08;95.49;99994.78;4940955;29;19926;-85
2021/06/09 19:26:52;;;;;;;;;;;;;;;8.13;94.90;99998.16;4952299;29;20010;-84
2021/06/09 19:29:18;;;;;;;;;;;;;;;8.17;94.45;99997.16;4953404;29;20665;-84